Wetterdaten: Donnerstag, 11.07.2024
Datum Zeit Außen Temp. Server Temp. +20m Feuchte Feuchte +20m Luftdruck Regen Wind Richtung Richtung Sonnenschein Helligkeit Solar Taupunkt
11.07.2024 00:00 18,1 °C 28,2 °C 18,4 °C 82 % 80 % 1015,3 hPa 0,00 l/m² 0,5 km/h (0 Bft) S-SO 160 ° 0 min 0 lux 0 W/m² 15,0 °C
11.07.2024 00:15 18,1 °C 28,1 °C 18,2 °C 82 % 83 % 1015,3 hPa 0,00 l/m² 2,7 km/h (1 Bft) S-SO 160 ° 0 min 0 lux 0 W/m² 15,0 °C
11.07.2024 00:30 18,0 °C 28,0 °C 18,1 °C 82 % 86 % 1016,3 hPa 0,00 l/m² 0,0 km/h (0 Bft) S-SO 160 ° 0 min 0 lux 0 W/m² 14,9 °C
11.07.2024 00:45 18,0 °C 28,0 °C 17,9 °C 82 % 88 % 1016,3 hPa 0,00 l/m² 0,0 km/h (0 Bft) S-SO 165 ° 0 min 0 lux 0 W/m² 14,9 °C
11.07.2024 01:00 18,0 °C 28,0 °C 18,0 °C 82 % 88 % 1016,3 hPa 0,00 l/m² 0,0 km/h (0 Bft) S-SO 165 ° 0 min 0 lux 0 W/m² 14,9 °C
11.07.2024 01:15 17,9 °C 27,9 °C 17,8 °C 82 % 88 % 1015,3 hPa 0,00 l/m² 0,0 km/h (0 Bft) S-SO 165 ° 0 min 0 lux 0 W/m² 14,8 °C
11.07.2024 01:30 17,9 °C 27,9 °C 17,7 °C 82 % 87 % 1015,3 hPa 0,00 l/m² 0,0 km/h (0 Bft) S-SO 165 ° 0 min 0 lux 0 W/m² 14,8 °C
11.07.2024 01:45 17,8 °C 27,7 °C 17,7 °C 82 % 87 % 1015,3 hPa 0,00 l/m² 0,0 km/h (0 Bft) S-SO 165 ° 0 min 0 lux 0 W/m² 14,7 °C
11.07.2024 02:00 17,9 °C 27,7 °C 17,8 °C 82 % 87 % 1015,3 hPa 0,00 l/m² 1,1 km/h (1 Bft) S-SO 165 ° 0 min 0 lux 0 W/m² 14,8 °C
11.07.2024 02:15 17,8 °C 27,6 °C 17,8 °C 82 % 87 % 1015,3 hPa 0,00 l/m² 0,0 km/h (0 Bft) S-SO 165 ° 0 min 0 lux 0 W/m² 14,7 °C
11.07.2024 02:30 17,6 °C 27,5 °C 17,7 °C 82 % 87 % 1015,3 hPa 0,00 l/m² 2,9 km/h (1 Bft) S-SO 165 ° 0 min 0 lux 0 W/m² 14,5 °C
11.07.2024 02:45 17,7 °C 27,4 °C 17,8 °C 82 % 87 % 1015,3 hPa 0,66 l/m² 3,3 km/h (1 Bft) S-SO 165 ° 0 min 0 lux 0 W/m² 14,6 °C
11.07.2024 03:00 17,3 °C 27,4 °C 17,2 °C 82 % 88 % 1016,4 hPa 0,00 l/m² 22,7 km/h (4 Bft) S-SO 165 ° 0 min 0 lux 0 W/m² 14,2 °C
11.07.2024 03:15 17,3 °C 27,3 °C 17,3 °C 82 % 89 % 1015,4 hPa 0,00 l/m² 12,6 km/h (3 Bft) S-SO 165 ° 0 min 0 lux 0 W/m² 14,2 °C
11.07.2024 03:30 17,3 °C 27,2 °C 17,1 °C 82 % 90 % 1015,4 hPa 0,00 l/m² 9,8 km/h (2 Bft) S-SO 165 ° 0 min 0 lux 0 W/m² 14,2 °C
11.07.2024 03:45 17,2 °C 27,1 °C 17,0 °C 82 % 90 % 1015,4 hPa 0,00 l/m² 8,7 km/h (2 Bft) S-SO 165 ° 0 min 0 lux 0 W/m² 14,1 °C
11.07.2024 04:00 17,1 °C 27,1 °C 16,7 °C 82 % 89 % 1015,4 hPa 0,00 l/m² 7,0 km/h (2 Bft) S-SO 165 ° 0 min 0 lux 0 W/m² 14,0 °C
11.07.2024 04:15 16,9 °C 27,0 °C 16,7 °C 82 % 90 % 1015,4 hPa 0,00 l/m² 3,6 km/h (1 Bft) S-SO 165 ° 0 min 0 lux 0 W/m² 13,8 °C
11.07.2024 04:30 16,9 °C 26,9 °C 16,7 °C 82 % 90 % 1015,4 hPa 0,00 l/m² 7,0 km/h (2 Bft) S-SO 165 ° 0 min 0 lux 0 W/m² 13,8 °C
11.07.2024 04:45 16,7 °C 26,9 °C 16,5 °C 82 % 89 % 1015,4 hPa 0,00 l/m² 2,4 km/h (1 Bft) S-SO 165 ° 0 min 0 lux 0 W/m² 13,6 °C
11.07.2024 05:00 16,7 °C 26,8 °C 16,4 °C 82 % 89 % 1015,4 hPa 0,00 l/m² 0,0 km/h (0 Bft) S-SO 165 ° 0 min 52 lux 0 W/m² 13,6 °C
11.07.2024 05:15 16,8 °C 26,7 °C 16,6 °C 82 % 90 % 1015,4 hPa 0,00 l/m² 0,0 km/h (0 Bft) S-SO 165 ° 0 min 232 lux 0 W/m² 13,7 °C
11.07.2024 05:30 16,9 °C 26,7 °C 16,6 °C 82 % 90 % 1015,4 hPa 0,00 l/m² 0,1 km/h (0 Bft) S-SO 165 ° 0 min 989 lux 6 W/m² 13,8 °C
11.07.2024 05:45 16,8 °C 26,6 °C 16,5 °C 82 % 90 % 1016,4 hPa 0,00 l/m² 0,0 km/h (0 Bft) S-SO 165 ° 0 min 2,19 klux 14 W/m² 13,7 °C
11.07.2024 06:00 16,9 °C 26,5 °C 16,7 °C 82 % 89 % 1016,4 hPa 0,00 l/m² 0,0 km/h (0 Bft) S-SO 165 ° 0 min 4,91 klux 32 W/m² 13,8 °C
11.07.2024 06:15 17,2 °C 26,5 °C 18,0 °C 82 % 90 % 1016,4 hPa 0,00 l/m² 0,0 km/h (0 Bft) S-SO 165 ° 0 min 7,49 klux 49 W/m² 14,1 °C
11.07.2024 06:30 17,3 °C 26,5 °C 18,0 °C 82 % 85 % 1016,4 hPa 0,00 l/m² 0,3 km/h (0 Bft) S-SO 165 ° 0 min 8,82 klux 57 W/m² 14,2 °C
11.07.2024 06:45 17,3 °C 26,5 °C 18,2 °C 82 % 78 % 1016,4 hPa 0,00 l/m² 0,4 km/h (0 Bft) S-SO 160 ° 0 min 7,49 klux 49 W/m² 14,2 °C
11.07.2024 07:00 17,5 °C 26,5 °C 17,9 °C 82 % 74 % 1016,4 hPa 0,00 l/m² 3,7 km/h (1 Bft) S-SO 165 ° 0 min 6,74 klux 44 W/m² 14,4 °C
11.07.2024 07:15 17,9 °C 26,5 °C 22,3 °C 82 % 74 % 1016,3 hPa 0,00 l/m² 0,4 km/h (0 Bft) S-SO 165 ° 0 min 11,6 klux 76 W/m² 14,8 °C
11.07.2024 07:30 19,6 °C 26,7 °C 21,0 °C 83 % 47 % 1016,2 hPa 0,00 l/m² 5,7 km/h (1 Bft) S-SO 160 ° 0 min 15,2 klux 99 W/m² 16,6 °C
11.07.2024 07:45 19,5 °C 26,7 °C 20,4 °C 83 % 47 % 1016,2 hPa 0,00 l/m² 5,0 km/h (1 Bft) S-SO 165 ° 0 min 14,6 klux 95 W/m² 16,5 °C
11.07.2024 08:00 23,4 °C 26,9 °C 24,4 °C 81 % 39 % 1015,8 hPa 0,00 l/m² 0,6 km/h (0 Bft) S-SO 160 ° 0 min 29,9 klux 195 W/m² 19,9 °C
11.07.2024 08:15 23,0 °C 27,0 °C 24,8 °C 73 % 39 % 1015,8 hPa 0,00 l/m² 0,0 km/h (0 Bft) S-SO 160 ° 15 min 37,8 klux 246 W/m² 17,9 °C
11.07.2024 08:30 23,5 °C 27,1 °C 24,9 °C 69 % 34 % 1015,8 hPa 0,00 l/m² 0,0 km/h (0 Bft) S-SO 160 ° 15 min 57,6 klux 375 W/m² 17,5 °C
11.07.2024 08:45 23,8 °C 27,3 °C 26,7 °C 64 % 31 % 1015,7 hPa 0,00 l/m² 0,0 km/h (0 Bft) S-SO 160 ° 0 min 40,7 klux 265 W/m² 16,6 °C
11.07.2024 09:00 22,6 °C 27,3 °C 24,5 °C 67 % 36 % 1015,9 hPa 0,00 l/m² 0,0 km/h (0 Bft) S-SO 160 ° 0 min 28,1 klux 183 W/m² 16,2 °C
11.07.2024 09:15 22,4 °C 27,4 °C 24,8 °C 70 % 38 % 1015,9 hPa 0,00 l/m² 0,0 km/h (0 Bft) S-SO 160 ° 0 min 30,4 klux 198 W/m² 16,7 °C
11.07.2024 09:30 23,6 °C 27,5 °C 25,6 °C 68 % 37 % 1015,8 hPa 0,00 l/m² 4,1 km/h (1 Bft) S-SO 160 ° 15 min 57,9 klux 377 W/m² 17,3 °C
11.07.2024 09:45 23,0 °C 27,6 °C 24,8 °C 68 % 38 % 1015,8 hPa 0,00 l/m² 0,6 km/h (0 Bft) S-SO 160 ° 0 min 39,5 klux 257 W/m² 16,8 °C
11.07.2024 10:00 22,8 °C 27,6 °C 24,9 °C 69 % 39 % 1015,8 hPa 0,00 l/m² 0,0 km/h (0 Bft) S-SO 160 ° 0 min 29,7 klux 193 W/m² 16,8 °C
11.07.2024 10:15 22,6 °C 27,6 °C 24,7 °C 69 % 38 % 1015,9 hPa 0,00 l/m² 0,4 km/h (0 Bft) S-SO 160 ° 0 min 39,9 klux 260 W/m² 16,6 °C
11.07.2024 10:30 22,6 °C 27,7 °C 25,1 °C 71 % 39 % 1015,9 hPa 0,00 l/m² 4,5 km/h (1 Bft) S-SO 160 ° 0 min 32,6 klux 212 W/m² 17,1 °C
11.07.2024 10:44 22,1 °C 27,8 °C 24,9 °C 72 % 39 % 1015,9 hPa 0,00 l/m² 7,8 km/h (2 Bft) S-SO 160 ° 0 min 40,9 klux 266 W/m² 16,8 °C
11.07.2024 11:00 22,4 °C 28,0 °C 25,1 °C 71 % 38 % 1015,9 hPa 0,00 l/m² 0,9 km/h (0 Bft) S-SO 160 ° 15 min 75,9 klux 494 W/m² 16,9 °C
11.07.2024 11:15 23,0 °C 28,2 °C 24,8 °C 68 % 38 % 1015,8 hPa 0,00 l/m² 0,6 km/h (0 Bft) S-SO 160 ° 15 min 71,3 klux 464 W/m² 16,8 °C
11.07.2024 11:30 23,3 °C 28,4 °C 25,1 °C 64 % 36 % 1015,8 hPa 0,00 l/m² 2,1 km/h (1 Bft) S-SO 160 ° 15 min 74,4 klux 485 W/m² 16,1 °C
11.07.2024 11:45 23,9 °C 28,5 °C 25,9 °C 62 % 35 % 1015,7 hPa 0,00 l/m² 10,7 km/h (2 Bft) S-SO 160 ° 15 min 77,2 klux 503 W/m² 16,2 °C
11.07.2024 12:00 24,1 °C 28,5 °C 26,2 °C 61 % 35 % 1015,7 hPa 0,00 l/m² 9,0 km/h (2 Bft) S-SO 160 ° 15 min 94,2 klux 614 W/m² 16,1 °C
11.07.2024 12:15 25,5 °C 28,7 °C 28,3 °C 56 % 30 % 1015,6 hPa 0,00 l/m² 1,0 km/h (0 Bft) S-SO 160 ° 15 min 103 klux 671 W/m² 16,1 °C
11.07.2024 12:30 24,0 °C 28,7 °C 24,1 °C 60 % 36 % 1015,7 hPa 0,00 l/m² 18,0 km/h (3 Bft) S-SO 160 ° 0 min 18,7 klux 122 W/m² 15,7 °C
11.07.2024 12:45 20,1 °C 28,4 °C 18,6 °C 75 % 51 % 1016,1 hPa 0,11 l/m² 38,2 km/h (5 Bft) S-SO 160 ° 0 min 2,27 klux 15 W/m² 15,5 °C
11.07.2024 13:00 18,5 °C 28,0 °C 18,2 °C 80 % 55 % 1017,3 hPa 1,76 l/m² 6,3 km/h (2 Bft) S-SO 160 ° 0 min 6,91 klux 45 W/m² 15,0 °C
11.07.2024 13:14 17,7 °C 27,8 °C 18,3 °C 82 % 55 % 1017,4 hPa 0,99 l/m² 0,3 km/h (0 Bft) S-SO 160 ° 0 min 18,3 klux 119 W/m² 14,6 °C
11.07.2024 13:30 19,2 °C 27,6 °C 19,6 °C 82 % 52 % 1017,2 hPa 0,11 l/m² 11,1 km/h (2 Bft) S-SO 160 ° 0 min 38,8 klux 253 W/m² 16,0 °C
11.07.2024 13:45 20,8 °C 27,7 °C 21,2 °C 81 % 47 % 1017,1 hPa 0,00 l/m² 7,8 km/h (2 Bft) S-SO 160 ° 0 min 39,3 klux 256 W/m² 17,4 °C
11.07.2024 14:00 21,8 °C 27,6 °C 22,1 °C 77 % 45 % 1015,9 hPa 0,00 l/m² 4,4 km/h (1 Bft) S-SO 160 ° 0 min 46,7 klux 304 W/m² 17,6 °C
11.07.2024 14:15 23,5 °C 27,8 °C 24,1 °C 71 % 40 % 1015,8 hPa 0,00 l/m² 0,2 km/h (0 Bft) S-SO 160 ° 15 min 101 klux 658 W/m² 17,9 °C
11.07.2024 14:30 24,1 °C 27,9 °C 24,6 °C 64 % 35 % 1015,7 hPa 0,00 l/m² 0,3 km/h (0 Bft) S-SO 160 ° 15 min 96,0 klux 625 W/m² 16,9 °C
11.07.2024 14:45 24,6 °C 28,0 °C 24,7 °C 60 % 35 % 1015,7 hPa 0,00 l/m² 0,0 km/h (0 Bft) S-SO 160 ° 15 min 90,8 klux 591 W/m² 16,3 °C
11.07.2024 15:00 24,6 °C 28,1 °C 25,7 °C 58 % 32 % 1015,7 hPa 0,00 l/m² 0,0 km/h (0 Bft) S-SO 160 ° 15 min 89,1 klux 580 W/m² 15,8 °C
11.07.2024 15:15 24,4 °C 28,2 °C 24,7 °C 58 % 32 % 1015,7 hPa 0,00 l/m² 0,1 km/h (0 Bft) S-SO 160 ° 15 min 87,7 klux 571 W/m² 15,6 °C
11.07.2024 15:30 24,1 °C 28,2 °C 23,6 °C 60 % 36 % 1015,7 hPa 0,00 l/m² 16,7 km/h (3 Bft) S-SO 160 ° 15 min 86,9 klux 566 W/m² 15,8 °C
11.07.2024 15:45 23,9 °C 28,3 °C 24,2 °C 61 % 37 % 1015,7 hPa 0,00 l/m² 21,6 km/h (4 Bft) S-SO 160 ° 15 min 90,5 klux 590 W/m² 15,9 °C
11.07.2024 16:00 24,3 °C 28,4 °C 24,5 °C 58 % 34 % 1015,7 hPa 0,00 l/m² 13,4 km/h (3 Bft) S-SO 160 ° 15 min 82,4 klux 537 W/m² 15,5 °C
11.07.2024 16:15 24,4 °C 28,5 °C 26,0 °C 58 % 33 % 1015,7 hPa 0,00 l/m² 15,0 km/h (3 Bft) S-SO 160 ° 15 min 73,4 klux 478 W/m² 15,6 °C
11.07.2024 16:30 25,0 °C 28,6 °C 25,0 °C 58 % 35 % 1015,6 hPa 0,00 l/m² 9,6 km/h (2 Bft) S-SO 160 ° 15 min 82,5 klux 537 W/m² 16,1 °C
11.07.2024 16:45 25,4 °C 28,6 °C 25,2 °C 58 % 35 % 1015,6 hPa 0,00 l/m² 0,0 km/h (0 Bft) S-SO 160 ° 15 min 69,9 klux 455 W/m² 16,5 °C
11.07.2024 17:00 26,0 °C 28,7 °C 25,5 °C 55 % 33 % 1015,5 hPa 0,00 l/m² 0,0 km/h (0 Bft) S-SO 160 ° 15 min 75,3 klux 491 W/m² 16,2 °C
11.07.2024 17:15 26,0 °C 28,7 °C 26,3 °C 54 % 31 % 1015,5 hPa 0,00 l/m² 0,4 km/h (0 Bft) S-SO 160 ° 15 min 69,2 klux 451 W/m² 16,0 °C
11.07.2024 17:30 25,1 °C 28,9 °C 26,3 °C 52 % 30 % 1015,6 hPa 0,00 l/m² 12,3 km/h (3 Bft) S-SO 160 ° 15 min 63,7 klux 415 W/m² 14,5 °C
11.07.2024 17:45 24,5 °C 28,9 °C 24,1 °C 54 % 34 % 1015,7 hPa 0,00 l/m² 18,5 km/h (3 Bft) S-SO 160 ° 15 min 59,4 klux 387 W/m² 14,6 °C
11.07.2024 18:00 24,9 °C 28,9 °C 25,4 °C 52 % 31 % 1014,6 hPa 0,00 l/m² 17,5 km/h (3 Bft) S-SO 160 ° 15 min 53,2 klux 347 W/m² 14,4 °C
11.07.2024 18:15 25,5 °C 29,0 °C 26,0 °C 52 % 30 % 1015,6 hPa 0,00 l/m² 14,5 km/h (3 Bft) S-SO 160 ° 15 min 55,0 klux 358 W/m² 14,9 °C
11.07.2024 18:30 25,3 °C 29,1 °C 24,8 °C 49 % 31 % 1015,6 hPa 0,00 l/m² 10,0 km/h (2 Bft) S-SO 160 ° 15 min 47,6 klux 310 W/m² 13,8 °C
11.07.2024 18:45 28,1 °C 29,2 °C 28,9 °C 44 % 25 % 1015,3 hPa 0,00 l/m² 11,1 km/h (2 Bft) S-SO 160 ° 15 min 43,6 klux 284 W/m² 14,7 °C
11.07.2024 19:00 26,0 °C 29,2 °C 28,7 °C 48 % 22 % 1015,5 hPa 0,00 l/m² 7,9 km/h (2 Bft) S-SO 160 ° 15 min 44,2 klux 288 W/m² 14,1 °C
11.07.2024 19:15 26,1 °C 29,2 °C 27,6 °C 48 % 25 % 1015,5 hPa 0,00 l/m² 10,2 km/h (2 Bft) S-SO 160 ° 0 min 18,6 klux 121 W/m² 14,2 °C
11.07.2024 19:30 26,4 °C 29,2 °C 26,9 °C 48 % 24 % 1015,5 hPa 0,00 l/m² 5,3 km/h (1 Bft) S-SO 160 ° 0 min 21,4 klux 139 W/m² 14,5 °C
11.07.2024 19:45 29,3 °C 29,1 °C 29,3 °C 41 % 15 % 1015,2 hPa 0,00 l/m² 0,7 km/h (0 Bft) S-SO 160 ° 15 min 27,8 klux 181 W/m² 14,7 °C
11.07.2024 20:00 27,1 °C 29,1 °C 26,4 °C 42 % 15 % 1015,4 hPa 0,00 l/m² 8,7 km/h (2 Bft) S-SO 160 ° 15 min 19,5 klux 127 W/m² 13,1 °C
11.07.2024 20:15 25,7 °C 29,0 °C 26,5 °C 49 % 26 % 1015,5 hPa 0,00 l/m² 7,8 km/h (2 Bft) S-SO 160 ° 0 min 11,3 klux 74 W/m² 14,2 °C
11.07.2024 20:30 24,7 °C 29,0 °C 25,7 °C 51 % 30 % 1014,6 hPa 0,00 l/m² 0,3 km/h (0 Bft) S-SO 160 ° 0 min 7,79 klux 51 W/m² 13,9 °C
11.07.2024 20:45 24,8 °C 29,0 °C 26,7 °C 52 % 33 % 1014,6 hPa 0,00 l/m² 0,0 km/h (0 Bft) S-SO 160 ° 0 min 7,61 klux 50 W/m² 14,3 °C
11.07.2024 21:00 22,1 °C 28,9 °C 23,0 °C 64 % 41 % 1014,9 hPa 0,00 l/m² 6,0 km/h (2 Bft) S-SO 160 ° 0 min 4,96 klux 32 W/m² 15,0 °C
11.07.2024 21:15 21,1 °C 28,8 °C 22,3 °C 68 % 41 % 1015,0 hPa 0,00 l/m² 5,7 km/h (1 Bft) S-SO 160 ° 15 min 3,60 klux 23 W/m² 15,0 °C
11.07.2024 21:30 20,3 °C 28,7 °C 20,3 °C 71 % 46 % 1015,1 hPa 0,00 l/m² 7,5 km/h (2 Bft) S-SO 160 ° 0 min 1,03 klux 0 W/m² 14,9 °C
11.07.2024 21:45 19,6 °C 28,6 °C 19,5 °C 74 % 48 % 1016,2 hPa 0,00 l/m² 9,8 km/h (2 Bft) S-SO 160 ° 0 min 446 lux 0 W/m² 14,8 °C
11.07.2024 22:00 18,8 °C 28,5 °C 18,8 °C 76 % 50 % 1016,2 hPa 0,00 l/m² 11,3 km/h (2 Bft) S-SO 160 ° 0 min 164 lux 0 W/m² 14,5 °C
11.07.2024 22:15 18,3 °C 28,2 °C 18,3 °C 77 % 51 % 1016,3 hPa 0,00 l/m² 13,0 km/h (3 Bft) S-SO 160 ° 0 min 20 lux 0 W/m² 14,2 °C
11.07.2024 22:30 18,1 °C 28,1 °C 18,0 °C 78 % 53 % 1016,3 hPa 0,00 l/m² 11,9 km/h (2 Bft) S-SO 160 ° 0 min 0 lux 0 W/m² 14,2 °C
11.07.2024 22:45 18,0 °C 28,0 °C 17,8 °C 78 % 53 % 1016,3 hPa 0,00 l/m² 13,5 km/h (3 Bft) S-SO 160 ° 0 min 0 lux 0 W/m² 14,1 °C
11.07.2024 23:00 17,8 °C 27,9 °C 17,9 °C 78 % 52 % 1016,3 hPa 0,00 l/m² 13,8 km/h (3 Bft) S-SO 160 ° 0 min 0 lux 0 W/m² 13,9 °C
11.07.2024 23:15 18,1 °C 27,8 °C 18,0 °C 77 % 50 % 1016,3 hPa 0,00 l/m² 11,8 km/h (2 Bft) S-SO 160 ° 0 min 0 lux 0 W/m² 14,0 °C
11.07.2024 23:30 17,9 °C 27,7 °C 17,9 °C 76 % 50 % 1016,3 hPa 0,00 l/m² 11,1 km/h (2 Bft) S-SO 160 ° 0 min 0 lux 0 W/m² 13,6 °C
11.07.2024 23:45 17,7 °C 27,6 °C 17,8 °C 77 % 50 % 1016,3 hPa 0,00 l/m² 10,6 km/h (2 Bft) S-SO 160 ° 0 min 0 lux 0 W/m² 13,6 °C
_ Min-Zeit 04:45 06:00 05:00 19:45 19:45 18:00 - 00:30 - - - - - 20:00
Minimum _ 16,7 °C 26,5 °C 16,4 °C 41 % 15 % 1014,6 hPa - 0,0 km/h (0 Bft) - - - - - 13,1 °C
_ Max-Zeit 19:45 18:45 19:45 07:30 03:30 13:14 13:00 12:45 - - 08:15 12:15 12:15 08:00
Maximum _ 29,3 °C 29,2 °C 29,3 °C 83 % 90 % 1017,4 hPa 1,76 l/m² 38,2 km/h
S-SO (5 Bft)
- - 15 min 103 klux 671 W/m² 19,9 °C
Durchschnitt _ 21,2 °C 27,9 °C 21,8 °C 70 % 53 % 1015,8 hPa #3,63 l/m² 5,8 km/h (2 Bft) S-SO - #8:00 h 29,2 klux 285 W/m² 15,2 °C